Time;durP1;ratioP1;P1;durP2;ratioP2;P2;SDS_P1;SDS_P2;PMS_P1;PMS_P2;Temp;Humidity;BMP_temperature;BMP_pressure;BME280_temperature;BME280_humidity;BME280_pressure;Samples;Min_cycle;Max_cycle;Signal;HPM_P1;HPM_P2
2021/12/19 00:11:00;;;;;;;5.45;2.47;;;;;;;4.82;100.00;99955.88;8432530;28;20058;-81
2021/12/19 00:15:01;;;;;;;4.53;2.60;;;;;;;4.87;100.00;99939.88;8432343;28;20040;-83
2021/12/19 00:19:03;;;;;;;3.58;2.30;;;;;;;4.98;100.00;99928.22;8432389;28;20052;-82
2021/12/19 00:23:04;;;;;;;5.00;2.30;;;;;;;4.93;100.00;99920.16;8434549;28;20051;-83
2021/12/19 00:27:05;;;;;;;7.53;2.60;;;;;;;4.99;100.00;99919.16;8429930;28;20051;-82
2021/12/19 00:31:06;;;;;;;3.70;2.28;;;;;;;4.96;100.00;99908.97;8427290;28;20055;-83
2021/12/19 00:35:07;;;;;;;4.90;3.30;;;;;;;4.93;100.00;99904.09;8417157;28;20055;-81
2021/12/19 00:39:08;;;;;;;5.80;3.55;;;;;;;4.99;100.00;99900.41;8432830;28;20089;-82
2021/12/19 00:43:21;;;;;;;8.27;3.67;;;;;;;4.93;100.00;99898.72;8431215;28;20052;-83
2021/12/19 00:47:22;;;;;;;9.57;3.88;;;;;;;4.97;100.00;99899.88;8423103;28;20047;-81
2021/12/19 00:51:25;;;;;;;6.93;3.97;;;;;;;4.96;100.00;99892.91;8431009;28;20051;-80
2021/12/19 00:55:30;;;;;;;8.65;4.05;;;;;;;4.94;100.00;99900.34;8430617;28;20056;-79
2021/12/19 00:59:31;;;;;;;5.78;4.40;;;;;;;5.00;100.00;99894.00;8430683;28;20051;-81
2021/12/19 01:03:32;;;;;;;8.20;5.00;;;;;;;5.12;100.00;99881.28;8428992;28;20071;-81
2021/12/19 01:07:33;;;;;;;12.00;5.28;;;;;;;5.11;100.00;99858.22;8429019;28;20406;-81
2021/12/19 01:11:35;;;;;;;11.63;5.22;;;;;;;5.10;100.00;99859.28;8430551;28;20043;-79
2021/12/19 01:15:36;;;;;;;10.75;5.55;;;;;;;5.15;100.00;99848.63;8430350;28;20056;-82
2021/12/19 01:19:37;;;;;;;16.67;6.25;;;;;;;5.09;100.00;99853.13;8430593;28;20089;-83
2021/12/19 01:23:37;;;;;;;12.45;5.68;;;;;;;5.13;100.00;99845.38;8428846;28;20394;-81
2021/12/19 01:27:39;;;;;;;13.10;5.95;;;;;;;5.14;100.00;99852.34;8427646;28;20615;-81
2021/12/19 01:31:40;;;;;;;9.80;5.75;;;;;;;5.14;100.00;99844.31;8428933;28;20537;-82
2021/12/19 01:35:41;;;;;;;11.65;5.90;;;;;;;5.14;100.00;99841.66;8428996;28;20073;-81
2021/12/19 01:39:41;;;;;;;18.50;6.22;;;;;;;5.21;100.00;99841.44;8430140;28;20093;-79
2021/12/19 01:43:42;;;;;;;14.55;7.07;;;;;;;5.22;100.00;99843.88;8428506;28;20123;-82
2021/12/19 01:47:43;;;;;;;13.05;5.65;;;;;;;5.26;100.00;99807.47;8427781;28;20167;-86
2021/12/19 01:51:44;;;;;;;20.05;5.20;;;;;;;5.31;100.00;99804.84;8429219;28;20382;-85
2021/12/19 01:55:46;;;;;;;14.95;6.05;;;;;;;5.29;100.00;99806.94;8428010;28;20052;-80
2021/12/19 01:59:48;;;;;;;13.50;6.13;;;;;;;5.30;100.00;99787.16;8428028;28;20074;-80
2021/12/19 02:03:49;;;;;;;21.70;7.38;;;;;;;5.32;100.00;99768.97;8427574;28;20478;-81
2021/12/19 02:07:52;;;;;;;12.43;5.38;;;;;;;5.38;100.00;99767.94;8428632;28;20052;-84
2021/12/19 02:11:54;;;;;;;18.60;6.53;;;;;;;5.36;100.00;99759.34;8393326;28;20040;-79
2021/12/19 02:15:55;;;;;;;17.13;6.05;;;;;;;5.39;100.00;99753.44;8428968;28;20048;-80
2021/12/19 02:19:57;;;;;;;14.05;6.85;;;;;;;5.41;100.00;99745.97;8410213;28;20047;-84
2021/12/19 02:24:00;;;;;;;19.52;6.95;;;;;;;5.45;100.00;99720.28;8428354;28;20056;-81
2021/12/19 02:28:01;;;;;;;14.57;6.50;;;;;;;5.51;100.00;99724.59;8428417;28;20401;-81
2021/12/19 02:32:04;;;;;;;11.63;6.15;;;;;;;5.46;100.00;99707.69;8427925;28;20059;-84
2021/12/19 02:48:51;;;;;;;17.15;7.70;;;;;;;5.52;100.00;99683.34;8292230;28;20058;-84
2021/12/19 02:52:53;;;;;;;17.23;7.70;;;;;;;5.49;100.00;99673.16;8323746;28;20076;-80
2021/12/19 02:56:54;;;;;;;19.27;7.75;;;;;;;5.56;99.70;99656.03;8296997;28;20488;-84
2021/12/19 03:00:56;;;;;;;17.38;7.65;;;;;;;5.66;98.62;99650.72;8288163;28;20053;-80
2021/12/19 03:04:59;;;;;;;19.48;7.32;;;;;;;5.67;98.29;99646.94;8292036;28;20050;-84
2021/12/19 03:09:05;;;;;;;19.08;8.68;;;;;;;5.62;98.45;99638.91;8302144;28;20100;-85
2021/12/19 03:13:29;;;;;;;14.02;7.70;;;;;;;5.71;96.88;99642.69;8295224;28;20053;-82
2021/12/19 03:21:49;;;;;;;;;;;;;;;5.76;96.79;99629.31;8405368;28;20055;-82
2021/12/19 03:25:49;;;;;;;23.48;8.95;;;;;;;5.74;96.08;99620.72;8426453;28;20007;-81
2021/12/19 03:29:50;;;;;;;21.90;10.23;;;;;;;5.72;96.18;99601.41;8431074;28;20044;-83
2021/12/19 03:33:51;;;;;;;21.88;8.70;;;;;;;5.76;95.39;99613.22;8432703;28;20127;-83
2021/12/19 03:37:52;;;;;;;17.15;6.93;;;;;;;5.84;93.29;99600.09;8433089;28;20094;-82
2021/12/19 03:41:56;;;;;;;21.50;9.15;;;;;;;5.86;93.15;99589.13;8398009;28;20067;-81
2021/12/19 03:45:57;;;;;;;19.48;9.60;;;;;;;5.80;93.79;99587.50;8432923;28;20052;-82
2021/12/19 03:49:58;;;;;;;21.85;9.80;;;;;;;5.76;93.85;99581.06;8413064;28;20190;-78
2021/12/19 03:53:59;;;;;;;19.30;8.45;;;;;;;5.74;94.07;99591.25;8432219;28;20427;-82
2021/12/19 03:58:02;;;;;;;16.73;7.85;;;;;;;5.83;92.99;99570.88;8432348;28;20087;-82
2021/12/19 04:02:03;;;;;;;21.60;8.15;;;;;;;5.76;93.03;99562.31;8431271;28;20051;-80
2021/12/19 04:06:04;;;;;;;22.42;8.50;;;;;;;5.68;93.57;99552.09;8431468;28;20032;-83
2021/12/19 04:10:06;;;;;;;21.13;7.07;;;;;;;5.76;92.18;99565.00;8431543;28;20058;-81
2021/12/19 04:14:06;;;;;;;14.07;6.03;;;;;;;5.68;92.25;99552.09;8431718;28;20044;-82
2021/12/19 04:18:08;;;;;;;20.13;6.28;;;;;;;5.67;91.40;99574.59;8411980;28;20052;-85
2021/12/19 04:22:09;;;;;;;12.27;5.22;;;;;;;5.70;90.70;99555.34;8431498;28;20435;-79
2021/12/19 04:26:10;;;;;;;14.63;5.43;;;;;;;5.71;90.33;99559.63;8430179;28;20490;-81
2021/12/19 04:30:15;;;;;;;20.35;6.55;;;;;;;5.68;90.34;99539.50;8430529;28;20046;-82
2021/12/19 04:34:17;;;;;;;15.82;5.55;;;;;;;5.68;90.13;99557.47;8430404;28;20069;-82
2021/12/19 04:55:24;;;;;;;13.93;3.80;;;;;;;5.68;87.25;99536.03;8423288;28;20083;-80
2021/12/19 05:03:47;;;;;;;13.52;3.55;;;;;;;5.65;86.69;99547.28;8427677;28;20535;-83
2021/12/19 05:16:27;;;;;;;17.45;3.50;;;;;;;5.56;87.61;99533.59;8404331;28;20053;-84
2021/12/19 05:20:29;;;;;;;14.68;3.35;;;;;;;5.51;87.75;99531.72;8406359;28;20130;-82
2021/12/19 05:28:37;;;;;;;20.98;4.50;;;;;;;5.65;86.65;99533.88;8409413;28;20497;-85
2021/12/19 05:32:39;;;;;;;16.20;4.13;;;;;;;5.69;86.45;99518.88;8412180;28;20085;-84
2021/12/19 05:45:20;;;;;;;15.85;4.07;;;;;;;5.64;86.42;99524.25;8407109;28;20064;-80
2021/12/19 05:49:21;;;;;;;10.88;3.63;;;;;;;5.60;86.86;99523.16;8399860;28;20102;-83
2021/12/19 05:53:22;;;;;;;11.73;3.38;;;;;;;5.58;87.18;99519.94;8416092;28;20498;-77
2021/12/19 05:57:22;;;;;;;17.70;3.72;;;;;;;5.68;86.37;99519.94;8404729;28;20569;-79
2021/12/19 06:01:23;;;;;;;12.50;3.83;;;;;;;5.67;86.49;99502.25;8406432;28;20424;-79
2021/12/19 06:05:24;;;;;;;15.55;4.25;;;;;;;5.63;87.25;99506.53;8405255;28;20074;-81
2021/12/19 06:09:25;;;;;;;15.43;4.40;;;;;;;5.55;87.91;99510.56;8405707;28;20046;-80
2021/12/19 06:13:25;;;;;;;13.98;4.80;;;;;;;5.48;88.24;99516.19;8416219;28;20052;-81
2021/12/19 06:17:26;;;;;;;14.38;4.93;;;;;;;5.44;88.75;99509.75;8413894;28;20064;-81
2021/12/19 06:21:27;;;;;;;15.23;4.82;;;;;;;5.52;87.75;99501.19;8411171;28;20040;-81
2021/12/19 06:25:28;;;;;;;11.15;4.35;;;;;;;5.48;87.78;99510.81;8410992;28;20087;-80
2021/12/19 06:29:30;;;;;;;11.35;5.50;;;;;;;5.46;88.07;99488.03;8397893;28;20417;-80
2021/12/19 06:33:31;;;;;;;13.95;5.35;;;;;;;5.59;86.99;99478.69;8403992;28;20059;-81
2021/12/19 06:37:35;;;;;;;8.18;4.43;;;;;;;5.51;87.32;99478.13;8406531;28;20044;-81
2021/12/19 06:41:36;;;;;;;12.27;5.07;;;;;;;5.49;87.28;99474.94;8406522;28;20123;-80
2021/12/19 06:45:37;;;;;;;16.25;4.97;;;;;;;5.50;87.43;99491.78;8419925;28;20052;-81
2021/12/19 06:49:38;;;;;;;12.23;5.22;;;;;;;5.48;87.78;99484.03;8426313;28;20390;-80
2021/12/19 06:53:39;;;;;;;12.73;6.00;;;;;;;5.47;87.76;99487.78;8427558;28;20048;-81
2021/12/19 06:57:40;;;;;;;10.07;4.88;;;;;;;5.58;86.82;99482.44;8427605;28;20056;-82
2021/12/19 07:01:41;;;;;;;15.00;4.97;;;;;;;5.43;87.57;99486.72;8426236;28;20082;-81
2021/12/19 07:05:43;;;;;;;10.13;4.72;;;;;;;5.47;87.66;99486.97;8433650;28;20055;-82
2021/12/19 07:09:43;;;;;;;12.80;6.47;;;;;;;5.48;88.10;99489.38;8432872;28;20059;-80
2021/12/19 07:13:44;;;;;;;7.85;5.22;;;;;;;5.63;86.90;99479.75;8433774;28;20540;-81
2021/12/19 07:17:45;;;;;;;14.05;4.93;;;;;;;5.57;87.03;99475.47;8432632;28;20050;-80
2021/12/19 07:21:46;;;;;;;19.08;4.85;;;;;;;5.47;87.75;99461.00;8433468;28;20477;-79
2021/12/19 07:25:47;;;;;;;15.77;5.28;;;;;;;5.47;87.91;99455.63;8396110;28;20131;-80
2021/12/19 07:29:48;;;;;;;14.15;4.97;;;;;;;5.42;88.40;99463.66;8432996;28;20044;-80
2021/12/19 07:33:49;;;;;;;8.65;4.85;;;;;;;5.40;88.53;99463.13;8432456;28;20076;-81
2021/12/19 07:37:51;;;;;;;9.15;4.30;;;;;;;5.44;88.22;99466.91;8431144;28;20048;-82
2021/12/19 07:41:52;;;;;;;10.52;4.50;;;;;;;5.56;87.21;99471.16;8432855;28;20040;-80
2021/12/19 07:45:53;;;;;;;11.43;4.70;;;;;;;5.58;86.89;99474.41;8432665;28;20140;-83
2021/12/19 07:49:54;;;;;;;9.02;4.60;;;;;;;5.68;86.17;99477.06;8432127;28;20052;-79
2021/12/19 07:53:55;;;;;;;11.80;4.68;;;;;;;5.55;86.87;99458.88;8433081;28;20452;-83
2021/12/19 07:57:56;;;;;;;15.63;4.40;;;;;;;5.52;87.58;99447.59;8431392;28;20103;-81
2021/12/19 08:01:57;;;;;;;9.48;4.13;;;;;;;5.50;87.88;99444.38;8435295;28;20055;-81
2021/12/19 08:05:58;;;;;;;8.00;3.42;;;;;;;5.47;87.88;99431.53;8428067;28;20036;-85
2021/12/19 08:10:14;;;;;;;7.63;3.50;;;;;;;5.43;88.04;99443.84;8431724;28;20554;-82
2021/12/19 08:14:16;;;;;;;4.90;3.25;;;;;;;5.42;87.56;99442.25;8428295;28;20390;-84
2021/12/19 08:18:16;;;;;;;5.40;2.95;;;;;;;5.48;86.83;99457.25;8428651;28;20048;-81
2021/12/19 08:22:18;;;;;;;6.15;3.15;;;;;;;5.52;86.65;99442.25;8431540;28;20056;-81
2021/12/19 08:26:19;;;;;;;8.48;2.95;;;;;;;5.45;87.65;99447.03;8409744;28;20059;-82
2021/12/19 08:30:23;;;;;;;6.25;3.75;;;;;;;5.44;88.50;99445.47;8393157;28;20044;-83
2021/12/19 08:34:23;;;;;;;7.15;3.95;;;;;;;5.37;89.49;99439.56;8375952;28;20048;-82
2021/12/19 08:38:25;;;;;;;8.93;3.90;;;;;;;5.29;90.56;99445.41;8391660;28;20059;-83
2021/12/19 08:42:27;;;;;;;9.65;4.57;;;;;;;5.28;91.32;99435.81;8357975;28;20597;-83
2021/12/19 08:46:32;;;;;;;9.05;4.35;;;;;;;5.32;92.34;99442.22;8359834;28;20150;-80
2021/12/19 08:50:33;;;;;;;8.52;4.35;;;;;;;5.29;93.21;99432.03;8392228;28;20430;-81
2021/12/19 08:54:34;;;;;;;12.68;3.72;;;;;;;5.24;93.71;99424.00;8359095;28;20047;-85
2021/12/19 08:58:35;;;;;;;7.75;3.80;;;;;;;5.31;93.66;99443.28;8393288;28;21016;-82
2021/12/19 09:02:38;;;;;;;7.90;3.80;;;;;;;5.23;94.27;99443.81;8394424;28;20036;-80
2021/12/19 09:06:39;;;;;;;10.20;4.03;;;;;;;5.13;95.01;99443.78;8435008;28;20119;-80
2021/12/19 09:10:40;;;;;;;7.97;3.03;;;;;;;5.17;95.08;99444.88;8417329;28;20067;-79
2021/12/19 09:14:41;;;;;;;6.72;2.85;;;;;;;5.09;94.81;99464.13;8409876;28;20040;-83
2021/12/19 09:18:45;;;;;;;4.45;2.10;;;;;;;5.15;92.60;99447.00;8429528;28;20412;-83
2021/12/19 09:22:46;;;;;;;4.80;1.90;;;;;;;5.14;92.79;99445.41;8358450;28;20075;-83
2021/12/19 09:26:47;;;;;;;5.65;1.60;;;;;;;5.13;92.14;99446.47;8357936;28;20127;-79
2021/12/19 09:30:48;;;;;;;6.90;1.40;;;;;;;5.24;90.88;99444.59;8358100;28;20424;-82
2021/12/19 09:34:51;;;;;;;3.25;1.50;;;;;;;5.15;91.02;99441.66;8357806;28;20566;-80
2021/12/19 09:38:52;;;;;;;4.07;1.40;;;;;;;5.14;90.61;99432.00;8358449;28;20044;-82
2021/12/19 09:43:00;;;;;;;4.80;1.50;;;;;;;5.17;90.07;99428.81;8358663;28;20045;-83
2021/12/19 09:47:01;;;;;;;2.45;0.88;;;;;;;5.16;89.92;99416.50;8356762;28;20152;-80
2021/12/19 09:51:03;;;;;;;4.25;1.63;;;;;;;5.16;90.09;99397.75;8334443;28;21253;-83
2021/12/19 09:55:07;;;;;;;3.80;1.30;;;;;;;5.16;90.12;99411.16;8413773;28;20051;-79
2021/12/19 09:59:12;;;;;;;9.43;1.60;;;;;;;5.22;89.38;99410.09;8425303;28;20520;-79
2021/12/19 10:03:15;;;;;;;6.55;1.50;;;;;;;5.22;89.34;99410.09;8424363;28;20044;-81
2021/12/19 10:07:20;;;;;;;2.17;0.90;;;;;;;5.26;89.05;99400.44;8425704;28;20429;-79
2021/12/19 10:11:32;;;;;;;2.63;1.40;;;;;;;5.28;89.13;99371.53;8426764;28;20048;-84
2021/12/19 10:15:37;;;;;;;2.42;1.23;;;;;;;5.28;89.52;99376.88;8426594;28;20073;-79
2021/12/19 10:19:45;;;;;;;1.90;0.90;;;;;;;5.28;89.44;99366.19;8418361;28;20028;-84
2021/12/19 10:23:47;;;;;;;3.13;1.40;;;;;;;5.20;89.92;99364.03;8426559;28;20472;-81
2021/12/19 10:27:53;;;;;;;6.18;1.70;;;;;;;5.20;90.90;99353.31;8425443;28;20048;-80
2021/12/19 10:32:04;;;;;;;3.17;1.60;;;;;;;5.19;91.79;99362.41;8425098;28;20044;-81
2021/12/19 10:36:06;;;;;;;2.20;1.50;;;;;;;5.35;91.59;99347.94;8432614;28;20052;-79
2021/12/19 10:40:08;;;;;;;2.33;1.35;;;;;;;5.16;92.92;99341.53;8422533;28;20619;-80
2021/12/19 10:45:29;;;;;;;3.72;1.70;;;;;;;5.21;93.30;99344.22;8396921;28;20406;-81
2021/12/19 10:48:39;;;;;;;3.28;1.50;;;;;;;5.16;93.32;99340.72;8423947;28;20044;-80
2021/12/19 10:52:40;;;;;;;3.40;1.35;;;;;;;5.07;93.84;99316.38;8423080;28;20036;-80
2021/12/19 10:56:41;;;;;;;2.47;1.40;;;;;;;5.09;94.31;99303.50;8387097;28;20108;-81
2021/12/19 11:01:14;;;;;;;4.47;1.40;;;;;;;5.10;93.54;99305.13;8433035;28;20427;-80
2021/12/19 11:05:35;;;;;;;3.50;1.67;;;;;;;5.11;94.15;99296.03;8423945;28;20051;-81
2021/12/19 11:09:38;;;;;;;4.93;0.93;;;;;;;5.12;94.07;99292.28;8379826;28;20052;-82
2021/12/19 11:13:39;;;;;;;3.67;1.20;;;;;;;5.13;93.24;99275.13;8432512;28;20056;-80
2021/12/19 11:17:40;;;;;;;7.00;1.55;;;;;;;5.09;93.35;99279.41;8422559;28;20142;-78
2021/12/19 11:21:42;;;;;;;3.90;1.33;;;;;;;5.13;92.61;99282.38;8430306;28;20041;-78
2021/12/19 11:25:43;;;;;;;5.00;1.27;;;;;;;5.15;92.53;99264.97;8426187;28;20055;-80
2021/12/19 11:29:45;;;;;;;5.18;1.70;;;;;;;5.10;92.74;99267.63;8429504;28;20040;-81
2021/12/19 11:34:00;;;;;;;3.47;1.55;;;;;;;5.13;92.63;99251.03;8424119;28;20535;-80
2021/12/19 11:38:03;;;;;;;4.85;1.83;;;;;;;5.13;92.28;99251.03;8427107;28;20052;-81
2021/12/19 11:42:14;;;;;;;2.78;1.52;;;;;;;5.14;92.09;99235.78;8407846;28;20796;-85
2021/12/19 11:46:23;;;;;;;4.88;1.80;;;;;;;5.13;92.01;99240.31;8425362;28;20463;-83
2021/12/19 11:50:32;;;;;;;5.40;2.20;;;;;;;5.15;92.07;99232.84;8418430;28;20079;-80
2021/12/19 11:54:34;;;;;;;4.13;2.00;;;;;;;5.19;91.95;99231.22;8429052;28;20052;-77
2021/12/19 11:58:48;;;;;;;3.67;1.90;;;;;;;5.21;91.62;99226.41;8427489;28;20551;-76
2021/12/19 12:02:49;;;;;;;4.88;1.55;;;;;;;5.13;92.29;99218.91;8424087;28;20048;-79
2021/12/19 12:06:57;;;;;;;8.27;1.98;;;;;;;5.20;91.51;99206.06;8424369;28;20097;-79
2021/12/19 12:10:59;;;;;;;3.07;1.60;;;;;;;5.21;90.71;99215.69;8426957;28;20043;-77
2021/12/19 12:15:04;;;;;;;5.20;1.70;;;;;;;5.20;91.01;99181.97;8429489;28;20542;-84
2021/12/19 12:19:07;;;;;;;7.53;1.55;;;;;;;5.16;91.43;99191.59;8429977;28;20489;-78
2021/12/19 12:23:10;;;;;;;6.28;1.90;;;;;;;5.19;91.37;99196.41;8421186;28;20036;-78
2021/12/19 12:27:12;;;;;;;2.15;1.00;;;;;;;5.24;90.94;99193.72;8423319;28;20474;-77
2021/12/19 12:31:14;;;;;;;7.65;2.13;;;;;;;5.25;90.54;99183.81;8439491;28;20098;-79
2021/12/19 12:35:17;;;;;;;4.85;1.40;;;;;;;5.25;90.59;99179.25;8428515;28;20056;-79
2021/12/19 12:39:24;;;;;;;3.75;1.58;;;;;;;5.31;90.21;99183.53;8427777;28;20040;-77
2021/12/19 12:43:29;;;;;;;2.95;1.10;;;;;;;5.30;89.95;99157.81;8425293;28;20417;-80
2021/12/19 12:47:30;;;;;;;4.28;1.58;;;;;;;5.40;89.58;99165.81;8426077;28;20048;-79
2021/12/19 12:51:36;;;;;;;2.83;1.27;;;;;;;5.39;89.72;99169.56;8428227;28;20040;-78
2021/12/19 12:55:36;;;;;;;6.50;1.35;;;;;;;5.28;90.40;99167.22;8431394;28;20117;-79
2021/12/19 13:12:50;;;;;;;2.25;1.10;;;;;;;5.38;89.19;99135.84;8482917;27;20423;-80
2021/12/19 13:16:56;;;;;;;2.53;1.42;;;;;;;5.37;89.30;99134.25;8455414;28;20415;-77
2021/12/19 13:21:02;;;;;;;2.60;1.25;;;;;;;5.44;89.06;99129.41;8454837;28;20036;-79
2021/12/19 13:25:08;;;;;;;2.30;1.30;;;;;;;5.36;89.83;99127.28;8476426;28;20048;-78
2021/12/19 13:29:18;;;;;;;2.13;1.40;;;;;;;5.30;90.46;99132.94;8458666;28;20134;-78
2021/12/19 13:33:21;;;;;;;1.27;1.00;;;;;;;5.37;89.83;99128.09;8480584;28;20039;-80
2021/12/19 13:37:22;;;;;;;15.77;8.15;;;;;;;5.21;90.59;99124.66;8483824;28;20139;-80
2021/12/19 13:41:23;;;;;;;7.80;5.82;;;;;;;5.13;91.39;99106.47;8458206;28;20039;-85
2021/12/19 13:45:35;;;;;;;5.25;4.43;;;;;;;5.10;91.82;99123.09;8475903;28;20107;-78
2021/12/19 13:49:36;;;;;;;3.88;1.73;;;;;;;5.12;91.89;99109.44;8465620;28;20072;-80
2021/12/19 13:53:39;;;;;;;2.55;0.82;;;;;;;5.13;91.93;99106.47;8456335;28;20068;-81
2021/12/19 13:57:41;;;;;;;2.40;1.60;;;;;;;5.15;92.01;99104.34;8455676;28;20048;-78
2021/12/19 14:01:42;;;;;;;2.83;1.75;;;;;;;5.14;92.23;99089.34;8454316;28;20465;-78
2021/12/19 14:05:56;;;;;;;2.60;1.20;;;;;;;5.02;92.62;99088.88;8462704;28;20050;-79
2021/12/19 14:10:02;;;;;;;2.45;1.10;;;;;;;4.94;93.59;99086.75;8449419;27;20074;-80
2021/12/19 14:14:30;;;;;;;2.95;1.23;;;;;;;4.97;93.48;99086.22;8449817;27;20039;-79
2021/12/19 14:18:38;;;;;;;4.75;1.77;;;;;;;4.93;94.05;99090.47;8457314;27;20134;-81
2021/12/19 14:22:39;;;;;;;4.25;1.20;;;;;;;4.92;94.09;99080.84;8464986;28;20047;-78
2021/12/19 14:26:42;;;;;;;3.53;1.20;;;;;;;4.90;94.01;99080.34;8428355;28;20584;-78
2021/12/19 14:31:12;;;;;;;5.72;2.92;;;;;;;4.99;93.27;99078.69;8416363;27;20051;-78
2021/12/19 14:35:20;;;;;;;4.57;2.53;;;;;;;5.04;92.23;99059.94;8464054;27;20039;-78
2021/12/19 14:39:28;;;;;;;5.75;3.28;;;;;;;4.92;92.96;99068.25;8464043;27;20043;-80
2021/12/19 14:43:33;;;;;;;7.32;4.30;;;;;;;5.01;92.83;99065.84;8448949;27;20549;-80
2021/12/19 14:47:43;;;;;;;5.13;2.63;;;;;;;4.94;93.26;99050.06;8455051;27;20062;-80
2021/12/19 14:51:57;;;;;;;10.68;4.20;;;;;;;4.93;93.66;99050.34;8453802;27;20172;-79
2021/12/19 14:56:00;;;;;;;11.32;5.25;;;;;;;4.96;93.17;99057.84;8475876;27;20490;-82
2021/12/19 15:00:00;;;;;;;62.90;25.45;;;;;;;4.96;93.33;99047.13;8465892;27;20043;-79
2021/12/19 15:04:08;;;;;;;12.00;5.10;;;;;;;4.91;93.80;99055.19;8468435;27;20171;-80
2021/12/19 15:08:12;;;;;;;20.10;8.27;;;;;;;5.04;92.86;99066.09;8445217;27;20066;-80
2021/12/19 15:12:13;;;;;;;5.82;3.30;;;;;;;4.96;93.58;99073.91;8428508;27;20423;-77
2021/12/19 15:16:14;;;;;;;11.13;8.15;;;;;;;4.92;94.15;99062.09;8465437;27;20062;-82
2021/12/19 15:20:16;;;;;;;7.10;2.25;;;;;;;4.95;94.47;99069.59;8466012;27;20101;-79
2021/12/19 15:24:17;;;;;;;3.67;2.03;;;;;;;4.93;94.95;99058.38;8463109;27;20396;-81
2021/12/19 15:28:22;;;;;;;2.67;1.80;;;;;;;4.91;95.33;99055.19;8465544;27;20032;-80
2021/12/19 15:32:23;;;;;;;17.42;6.97;;;;;;;4.90;95.70;99042.88;8484079;27;20120;-80
2021/12/19 15:36:24;;;;;;;9.63;4.25;;;;;;;4.90;96.18;99037.50;8463368;27;20070;-82
2021/12/19 15:40:24;;;;;;;19.05;10.77;;;;;;;4.88;96.66;99045.00;8442340;27;20043;-81
2021/12/19 15:44:26;;;;;;;4.50;2.38;;;;;;;4.86;97.10;99036.47;8443138;27;20039;-79
2021/12/19 15:48:26;;;;;;;4.18;2.13;;;;;;;4.89;97.13;99019.84;8465391;27;20043;-83
2021/12/19 15:52:28;;;;;;;3.95;2.03;;;;;;;4.86;97.42;99036.47;8460244;27;20044;-82
2021/12/19 15:56:28;;;;;;;4.40;2.35;;;;;;;4.87;97.46;99043.41;8442593;28;20579;-81
2021/12/19 16:00:50;;;;;;;4.13;1.90;;;;;;;4.87;97.81;99005.94;8340126;28;20417;-81
2021/12/19 16:04:51;;;;;;;3.97;1.75;;;;;;;4.93;97.59;98994.13;8372638;28;20045;-83
2021/12/19 16:08:52;;;;;;;6.53;2.80;;;;;;;4.81;98.16;99007.06;8355037;28;20057;-81
2021/12/19 16:12:53;;;;;;;4.20;2.35;;;;;;;4.85;98.17;99024.16;8355722;28;20045;-79
2021/12/19 16:16:53;;;;;;;4.00;2.85;;;;;;;4.85;98.27;99013.44;8351994;28;20131;-80
2021/12/19 16:20:57;;;;;;;2.97;1.80;;;;;;;4.85;98.24;99018.81;8426657;28;20124;-80
2021/12/19 16:24:59;;;;;;;8.23;3.90;;;;;;;4.89;98.44;99009.16;8425730;28;20484;-82
2021/12/19 16:29:00;;;;;;;7.00;2.25;;;;;;;4.82;98.36;99013.97;8423612;28;20047;-82
2021/12/19 16:33:02;;;;;;;5.97;2.20;;;;;;;4.88;98.32;99023.59;8394265;28;20051;-79
2021/12/19 16:37:03;;;;;;;3.10;1.83;;;;;;;4.91;98.01;99023.06;8425624;28;20052;-83
2021/12/19 16:41:07;;;;;;;3.90;1.88;;;;;;;4.93;97.29;99020.91;8425618;28;20036;-82
2021/12/19 16:45:09;;;;;;;9.77;2.08;;;;;;;4.89;97.74;99015.31;8424700;28;20396;-82
2021/12/19 16:49:10;;;;;;;5.07;2.13;;;;;;;4.85;97.90;99005.44;8424711;28;20048;-82
2021/12/19 16:53:11;;;;;;;4.20;2.25;;;;;;;4.85;98.35;99014.25;8427414;28;20040;-80
2021/12/19 16:57:13;;;;;;;8.20;2.30;;;;;;;4.90;98.43;99000.06;8428911;28;20663;-83
2021/12/19 17:01:15;;;;;;;5.13;2.05;;;;;;;4.84;98.95;99014.53;8398584;28;20040;-82
2021/12/19 17:05:16;;;;;;;4.32;2.10;;;;;;;4.86;99.10;99007.03;8407791;28;20477;-82
2021/12/19 17:09:19;;;;;;;4.53;2.42;;;;;;;4.84;99.27;99006.50;8429092;28;20047;-81
2021/12/19 17:13:29;;;;;;;4.53;2.28;;;;;;;4.82;99.88;99004.09;8466522;28;20039;-80
2021/12/19 17:17:30;;;;;;;21.98;9.18;;;;;;;4.79;99.70;99009.19;8441849;28;20043;-82
2021/12/19 17:21:31;;;;;;;10.93;6.25;;;;;;;4.77;100.00;99027.38;8460602;28;20492;-87
2021/12/19 17:30:49;;;;;;;6.85;3.33;;;;;;;4.72;100.00;99036.22;8349476;28;20082;-81
2021/12/19 17:34:53;;;;;;;7.97;2.80;;;;;;;4.71;100.00;99029.25;8344116;28;20045;-82
2021/12/19 17:38:55;;;;;;;6.10;2.88;;;;;;;4.74;100.00;99034.09;8359208;28;20060;-84
2021/12/19 17:42:57;;;;;;;8.57;2.42;;;;;;;4.67;100.00;99047.75;8315998;28;20064;-83
2021/12/19 17:46:59;;;;;;;7.55;3.30;;;;;;;4.71;100.00;99060.56;8335327;28;20506;-81
2021/12/19 17:51:00;;;;;;;5.10;2.55;;;;;;;4.67;100.00;99050.41;8364491;28;20056;-82
2021/12/19 17:55:01;;;;;;;14.75;5.10;;;;;;;4.60;100.00;99039.19;8360995;28;20083;-81
2021/12/19 17:59:02;;;;;;;10.55;3.33;;;;;;;4.52;100.00;99053.13;8359315;28;20045;-79
2021/12/19 18:03:04;;;;;;;13.40;4.47;;;;;;;4.41;100.00;99051.53;8353493;28;20123;-81
2021/12/19 18:07:06;;;;;;;13.75;4.35;;;;;;;4.41;100.00;99050.72;8412993;27;20126;-79
2021/12/19 18:11:07;;;;;;;10.93;4.82;;;;;;;4.27;100.00;99045.16;8464196;27;20055;-82
2021/12/19 18:15:11;;;;;;;16.13;4.75;;;;;;;4.17;100.00;99050.50;8463388;28;20057;-82
2021/12/19 18:19:12;;;;;;;10.75;5.60;;;;;;;4.08;100.00;99052.09;8461765;27;20592;-82
2021/12/19 18:23:14;;;;;;;11.32;4.43;;;;;;;4.03;100.00;99065.44;8444829;28;20100;-84
2021/12/19 18:27:15;;;;;;;12.55;4.32;;;;;;;3.99;100.00;99064.38;8426126;27;20050;-83
2021/12/19 18:31:17;;;;;;;14.20;5.40;;;;;;;3.95;100.00;99068.66;8463143;27;20048;-83
2021/12/19 18:35:23;;;;;;;8.60;4.97;;;;;;;3.89;100.00;99070.53;8463703;27;20043;-81
2021/12/19 18:39:29;;;;;;;16.92;5.47;;;;;;;3.83;100.00;99077.72;8443680;28;20040;-83
2021/12/19 18:43:42;;;;;;;16.58;5.60;;;;;;;3.77;100.00;99094.81;8445675;28;20479;-82
2021/12/19 18:59:50;;;;;;;14.80;5.47;;;;;;;3.61;100.00;99116.41;8462172;27;20555;-82
2021/12/19 19:07:59;;;;;;;15.15;5.72;;;;;;;3.52;100.00;99129.47;8462761;28;20481;-84
2021/12/19 19:12:00;;;;;;;11.90;4.90;;;;;;;3.63;100.00;99119.63;8461886;28;20823;-84
2021/12/19 19:16:01;;;;;;;18.02;6.20;;;;;;;3.57;100.00;99140.16;8428416;27;20134;-82
2021/12/19 19:20:03;;;;;;;15.30;5.60;;;;;;;3.51;100.00;99154.56;8444313;28;20404;-85
2021/12/19 19:24:08;;;;;;;13.57;5.57;;;;;;;3.42;100.00;99145.47;8388183;28;20056;-83
2021/12/19 19:28:09;;;;;;;17.67;6.07;;;;;;;3.33;100.00;99142.47;8374530;28;20489;-83
2021/12/19 19:32:14;;;;;;;15.23;5.70;;;;;;;3.27;100.00;99151.53;8373284;28;20049;-82
2021/12/19 19:36:15;;;;;;;18.85;6.38;;;;;;;3.22;100.00;99150.72;8390232;28;20048;-82
2021/12/19 19:52:46;;;;;;;17.65;5.97;;;;;;;3.10;100.00;99168.78;8389891;28;20067;-82
2021/12/19 19:57:08;;;;;;;24.58;6.78;;;;;;;3.13;100.00;99178.91;8390165;28;20086;-82
2021/12/19 20:01:09;;;;;;;16.15;5.68;;;;;;;3.14;99.57;99192.00;8344328;28;20053;-83
2021/12/19 20:05:11;;;;;;;17.48;5.88;;;;;;;3.11;98.84;99186.41;8389068;28;20545;-83
2021/12/19 20:09:12;;;;;;;21.30;6.25;;;;;;;3.01;98.55;99181.00;8336736;28;20529;-82
2021/12/19 20:13:14;;;;;;;19.92;5.90;;;;;;;2.86;98.64;99190.50;8374338;28;20221;-82
2021/12/19 20:17:16;;;;;;;25.65;6.15;;;;;;;2.74;98.95;99191.75;8377409;28;20040;-83
2021/12/19 20:21:18;;;;;;;22.45;6.55;;;;;;;2.71;98.92;99202.91;8385319;28;20127;-82
2021/12/19 20:25:19;;;;;;;21.08;5.72;;;;;;;2.76;98.76;99205.63;8389658;28;20041;-83
2021/12/19 20:29:21;;;;;;;14.98;4.55;;;;;;;2.84;96.93;99208.63;8371232;28;20585;-83
2021/12/19 20:33:22;;;;;;;16.65;3.92;;;;;;;2.67;96.34;99218.63;8357156;28;20056;-82
2021/12/19 20:37:23;;;;;;;23.70;4.97;;;;;;;2.48;96.77;99236.06;8365048;28;20100;-82
2021/12/19 20:41:25;;;;;;;19.35;4.20;;;;;;;2.36;97.05;99232.75;8407797;28;20093;-82
2021/12/19 20:45:27;;;;;;;14.95;4.40;;;;;;;2.32;96.90;99221.78;8415674;28;20512;-82
2021/12/19 20:49:33;;;;;;;16.48;4.38;;;;;;;2.37;97.20;99234.34;8387080;28;20086;-82
2021/12/19 20:53:38;;;;;;;14.23;4.03;;;;;;;2.40;96.41;99236.50;8418563;28;20040;-83
2021/12/19 20:57:40;;;;;;;14.10;3.97;;;;;;;2.31;95.93;99240.69;8418677;28;20116;-82
2021/12/19 21:01:41;;;;;;;11.23;3.67;;;;;;;2.09;96.13;99244.19;8414083;28;20048;-82
2021/12/19 21:05:44;;;;;;;19.85;4.35;;;;;;;2.02;96.49;99243.56;8395748;28;20478;-81